createdAt,value
2023-02-28T00:08:02.867Z,101472.65
2023-02-28T00:18:06.428Z,101473.89
2023-02-28T00:28:10.193Z,101476.61
2023-02-28T00:38:15.183Z,101473.18
2023-02-28T00:48:18.946Z,101480.04
2023-02-28T00:58:23.232Z,101473.41
2023-02-28T01:08:28.654Z,101471.70
2023-02-28T01:18:32.708Z,101467.73
2023-02-28T01:28:37.087Z,101467.56
2023-02-28T01:38:41.255Z,101472.52
2023-02-28T01:49:05.896Z,101473.45
2023-02-28T01:59:10.355Z,101474.81
2023-02-28T02:09:16.809Z,101474.61
2023-02-28T02:20:11.379Z,101480.13
2023-02-28T02:30:58.610Z,101476.39
2023-02-28T02:41:20.441Z,101480.11
2023-02-28T02:51:27.079Z,101480.76
2023-02-28T03:01:33.172Z,101487.88
2023-02-28T03:11:38.986Z,101489.21
2023-02-28T03:22:01.563Z,101497.14
2023-02-28T03:32:09.447Z,101496.45
2023-02-28T03:42:19.509Z,101505.98
2023-02-28T03:52:28.596Z,101503.61
2023-02-28T04:02:32.323Z,101503.91
2023-02-28T04:12:36.150Z,101503.71
2023-02-28T04:22:39.781Z,101494.60
2023-02-28T04:32:43.550Z,101484.13
2023-02-28T04:42:48.900Z,101493.80
2023-02-28T04:52:52.496Z,101496.59
2023-02-28T05:02:59.956Z,101494.90
2023-02-28T05:13:03.849Z,101487.81
2023-02-28T05:23:09.297Z,101491.98
2023-02-28T05:33:14.210Z,101499.90
2023-02-28T05:43:17.780Z,101511.48
2023-02-28T05:53:22.188Z,101518.05
2023-02-28T06:03:27.839Z,101519.48
2023-02-28T06:13:31.615Z,101521.78
2023-02-28T06:23:35.231Z,101523.05
2023-02-28T06:33:40.565Z,101528.40
2023-02-28T06:43:47.655Z,101519.93
2023-02-28T06:53:52.026Z,101524.08
2023-02-28T07:03:56.820Z,101522.02
2023-02-28T07:14:02.345Z,101504.77
2023-02-28T07:24:07.248Z,101490.52
2023-02-28T07:34:11.758Z,101499.85
2023-02-28T07:44:15.458Z,101503.03
2023-02-28T07:54:19.300Z,101499.21
2023-02-28T08:04:25.150Z,101505.10
2023-02-28T08:14:28.985Z,101514.35
2023-02-28T08:24:35.783Z,101515.74
2023-02-28T08:34:41.617Z,101513.39
2023-02-28T08:44:45.839Z,101516.33
2023-02-28T08:54:50.572Z,101514.65
2023-02-28T09:04:54.173Z,101507.70
2023-02-28T09:14:57.829Z,101505.89
2023-02-28T09:25:01.442Z,101503.83
2023-02-28T09:35:05.917Z,101501.45
2023-02-28T09:45:38.070Z,101485.00
2023-02-28T09:56:09.468Z,101477.42
2023-02-28T10:06:20.955Z,101468.63
2023-02-28T10:16:31.732Z,101460.80
2023-02-28T10:26:39.793Z,101454.24
2023-02-28T10:36:46.427Z,101448.01
2023-02-28T10:46:52.636Z,101446.02
2023-02-28T10:57:17.236Z,101450.87
2023-02-28T11:07:27.863Z,101442.81
2023-02-28T11:17:37.567Z,101430.60
2023-02-28T11:27:48.105Z,101417.26
2023-02-28T11:37:51.766Z,101411.31
2023-02-28T11:48:37.830Z,101406.27
2023-02-28T11:59:07.561Z,101378.53
2023-02-28T12:09:34.442Z,101370.70
2023-02-28T12:19:45.344Z,101364.46
2023-02-28T12:29:55.883Z,101349.09
2023-02-28T12:40:07.760Z,101347.88
2023-02-28T12:50:12.907Z,101336.59
2023-02-28T13:00:20.787Z,101340.89
2023-02-28T13:10:25.043Z,101325.14
2023-02-28T13:20:37.382Z,101322.23
2023-02-28T13:30:54.301Z,101308.66
2023-02-28T13:41:30.451Z,101303.00
2023-02-28T13:51:49.655Z,101281.73
2023-02-28T14:02:02.346Z,101279.98
2023-02-28T14:12:44.008Z,101272.34
2023-02-28T14:23:04.436Z,101262.19
2023-02-28T14:33:41.133Z,101265.52
2023-02-28T14:43:55.374Z,101259.08
2023-02-28T14:54:02.420Z,101275.09
2023-02-28T15:04:07.685Z,101255.25
2023-02-28T15:14:19.174Z,101244.17
2023-02-28T15:24:48.018Z,101248.55
2023-02-28T15:34:51.906Z,101255.25
2023-02-28T15:44:55.771Z,101251.52
2023-02-28T15:54:59.905Z,101241.58
2023-02-28T16:05:09.753Z,101224.42
2023-02-28T16:15:24.263Z,101204.91
2023-02-28T16:25:36.847Z,101204.05
2023-02-28T16:35:42.148Z,101209.63
2023-02-28T16:45:46.871Z,101224.10
2023-02-28T16:55:52.102Z,101220.61
2023-02-28T17:05:56.096Z,101223.05
2023-02-28T17:15:59.954Z,101215.41
2023-02-28T17:26:06.747Z,101219.33
2023-02-28T17:36:23.065Z,101224.92
2023-02-28T17:46:27.881Z,101216.98
2023-02-28T17:56:32.470Z,101224.27
2023-02-28T18:06:51.144Z,101239.28
2023-02-28T18:16:56.295Z,101237.59
2023-02-28T18:27:02.551Z,101242.98
2023-02-28T18:37:06.461Z,101246.47
2023-02-28T18:47:14.790Z,101246.15
2023-02-28T18:57:18.662Z,101240.55
2023-02-28T19:07:22.436Z,101230.11
2023-02-28T19:17:26.970Z,101230.15
2023-02-28T19:27:31.006Z,101220.50
2023-02-28T19:37:38.621Z,101224.98
2023-02-28T19:47:42.790Z,101235.70
2023-02-28T19:57:49.338Z,101242.41
2023-02-28T20:07:53.092Z,101237.86
2023-02-28T20:17:57.752Z,101224.05
2023-02-28T20:28:01.417Z,101225.11
2023-02-28T20:38:06.256Z,101217.94
2023-02-28T20:48:11.692Z,101214.42
2023-02-28T20:58:15.420Z,101185.25
2023-02-28T21:08:19.040Z,101159.57
2023-02-28T21:18:22.663Z,101172.75
2023-02-28T21:28:26.293Z,101181.94
2023-02-28T21:38:32.687Z,101173.02
2023-02-28T21:48:36.826Z,101153.49
2023-02-28T21:58:41.447Z,101149.45
2023-02-28T22:08:48.095Z,101160.59
2023-02-28T22:18:52.530Z,101154.96
2023-02-28T22:28:58.167Z,101142.80
2023-02-28T22:39:01.948Z,101139.67
2023-02-28T22:49:08.249Z,101137.77
2023-02-28T22:59:15.132Z,101140.70
2023-02-28T23:09:22.352Z,101126.94
2023-02-28T23:19:31.418Z,101128.52
2023-02-28T23:29:35.573Z,101151.45
2023-02-28T23:39:39.274Z,101162.33
2023-02-28T23:49:42.867Z,101150.23
2023-02-28T23:59:48.105Z,101136.99
